sensor_id;sensor_type;location;lat;lon;timestamp;P1;P2;P0
40569;PMS5003;26270;34.428;-119.710;2023-02-18T00:01:27;0;0;
40569;PMS5003;26270;34.428;-119.710;2023-02-18T00:03:55;1;1;
40569;PMS5003;26270;34.428;-119.710;2023-02-18T00:06:25;1;1;
40569;PMS5003;26270;34.428;-119.710;2023-02-18T00:08:54;0;0;
40569;PMS5003;26270;34.428;-119.710;2023-02-18T00:11:23;1;1;
40569;PMS5003;26270;34.428;-119.710;2023-02-18T00:13:52;3;2;
40569;PMS5003;26270;34.428;-119.710;2023-02-18T00:16:23;1;1;
40569;PMS5003;26270;34.428;-119.710;2023-02-18T00:18:54;1;1;
40569;PMS5003;26270;34.428;-119.710;2023-02-18T00:21:22;1;1;
40569;PMS5003;26270;34.428;-119.710;2023-02-18T00:23:51;2;2;
40569;PMS5003;26270;34.428;-119.710;2023-02-18T00:26:19;3;2;
40569;PMS5003;26270;34.428;-119.710;2023-02-18T00:28:48;2;2;
40569;PMS5003;26270;34.428;-119.710;2023-02-18T00:31:18;2;1;
40569;PMS5003;26270;34.428;-119.710;2023-02-18T00:33:47;1;1;
40569;PMS5003;26270;34.428;-119.710;2023-02-18T00:36:17;2;2;
40569;PMS5003;26270;34.428;-119.710;2023-02-18T00:38:47;1;1;
40569;PMS5003;26270;34.428;-119.710;2023-02-18T00:41:17;2;2;
40569;PMS5003;26270;34.428;-119.710;2023-02-18T00:43:46;5;4;
40569;PMS5003;26270;34.428;-119.710;2023-02-18T00:46:14;2;1;
40569;PMS5003;26270;34.428;-119.710;2023-02-18T00:48:42;2;2;
40569;PMS5003;26270;34.428;-119.710;2023-02-18T00:51:11;1;1;
40569;PMS5003;26270;34.428;-119.710;2023-02-18T00:53:40;0;0;
40569;PMS5003;26270;34.428;-119.710;2023-02-18T00:56:07;2;1;
40569;PMS5003;26270;34.428;-119.710;2023-02-18T00:58:36;2;2;
40569;PMS5003;26270;34.428;-119.710;2023-02-18T01:01:05;3;3;
40569;PMS5003;26270;34.428;-119.710;2023-02-18T01:03:35;4;4;
40569;PMS5003;26270;34.428;-119.710;2023-02-18T01:06:05;3;3;
40569;PMS5003;26270;34.428;-119.710;2023-02-18T01:08:34;1;1;
40569;PMS5003;26270;34.428;-119.710;2023-02-18T01:11:03;2;1;
40569;PMS5003;26270;34.428;-119.710;2023-02-18T01:13:33;1;1;
40569;PMS5003;26270;34.428;-119.710;2023-02-18T01:16:02;1;0;
40569;PMS5003;26270;34.428;-119.710;2023-02-18T01:18:30;1;1;
40569;PMS5003;26270;34.428;-119.710;2023-02-18T01:20:58;1;1;
40569;PMS5003;26270;34.428;-119.710;2023-02-18T01:23:27;2;1;
40569;PMS5003;26270;34.428;-119.710;2023-02-18T01:25:56;2;2;
40569;PMS5003;26270;34.428;-119.710;2023-02-18T01:28:25;1;1;
40569;PMS5003;26270;34.428;-119.710;2023-02-18T01:30:54;3;2;
40569;PMS5003;26270;34.428;-119.710;2023-02-18T01:33:22;1;1;
40569;PMS5003;26270;34.428;-119.710;2023-02-18T01:35:51;5;2;
40569;PMS5003;26270;34.428;-119.710;2023-02-18T01:38:19;1;1;
40569;PMS5003;26270;34.428;-119.710;2023-02-18T01:40:49;2;2;
40569;PMS5003;26270;34.428;-119.710;2023-02-18T01:43:19;1;1;
40569;PMS5003;26270;34.428;-119.710;2023-02-18T01:45:58;3;2;
40569;PMS5003;26270;34.428;-119.710;2023-02-18T01:48:31;4;4;
40569;PMS5003;26270;34.428;-119.710;2023-02-18T01:51:03;5;3;
40569;PMS5003;26270;34.428;-119.710;2023-02-18T01:53:36;5;4;
40569;PMS5003;26270;34.428;-119.710;2023-02-18T01:56:10;4;4;
40569;PMS5003;26270;34.428;-119.710;2023-02-18T01:58:42;7;7;
40569;PMS5003;26270;34.428;-119.710;2023-02-18T02:01:10;23;23;
40569;PMS5003;26270;34.428;-119.710;2023-02-18T02:03:39;33;33;
40569;PMS5003;26270;34.428;-119.710;2023-02-18T02:06:10;33;28;
40569;PMS5003;26270;34.428;-119.710;2023-02-18T02:08:42;21;20;
40569;PMS5003;26270;34.428;-119.710;2023-02-18T02:11:19;10;9;
40569;PMS5003;26270;34.428;-119.710;2023-02-18T02:13:58;4;4;
40569;PMS5003;26270;34.428;-119.710;2023-02-18T02:16:37;5;5;
40569;PMS5003;26270;34.428;-119.710;2023-02-18T02:19:18;4;4;
40569;PMS5003;26270;34.428;-119.710;2023-02-18T02:22:23;10;10;
40569;PMS5003;26270;34.428;-119.710;2023-02-18T02:25:16;10;7;
40569;PMS5003;26270;34.428;-119.710;2023-02-18T02:28:04;10;10;
40569;PMS5003;26270;34.428;-119.710;2023-02-18T02:30:57;15;15;
40569;PMS5003;26270;34.428;-119.710;2023-02-18T02:34:02;14;13;
40569;PMS5003;26270;34.428;-119.710;2023-02-18T02:36:46;15;15;
40569;PMS5003;26270;34.428;-119.710;2023-02-18T02:39:22;16;15;
40569;PMS5003;26270;34.428;-119.710;2023-02-18T02:41:59;15;14;
40569;PMS5003;26270;34.428;-119.710;2023-02-18T02:44:34;14;13;
40569;PMS5003;26270;34.428;-119.710;2023-02-18T02:47:10;10;10;
40569;PMS5003;26270;34.428;-119.710;2023-02-18T02:49:47;9;9;
40569;PMS5003;26270;34.428;-119.710;2023-02-18T02:52:22;15;14;
40569;PMS5003;26270;34.428;-119.710;2023-02-18T02:54:54;27;25;
40569;PMS5003;26270;34.428;-119.710;2023-02-18T02:57:54;22;20;
40569;PMS5003;26270;34.428;-119.710;2023-02-18T03:00:25;8;8;
40569;PMS5003;26270;34.428;-119.710;2023-02-18T03:03:13;6;6;
40569;PMS5003;26270;34.428;-119.710;2023-02-18T03:05:57;11;7;
40569;PMS5003;26270;34.428;-119.710;2023-02-18T03:08:42;8;8;
40569;PMS5003;26270;34.428;-119.710;2023-02-18T03:11:15;10;10;
40569;PMS5003;26270;34.428;-119.710;2023-02-18T03:13:50;11;11;
40569;PMS5003;26270;34.428;-119.710;2023-02-18T03:16:26;14;11;
40569;PMS5003;26270;34.428;-119.710;2023-02-18T03:19:03;10;9;
40569;PMS5003;26270;34.428;-119.710;2023-02-18T03:21:38;9;9;
40569;PMS5003;26270;34.428;-119.710;2023-02-18T03:24:09;9;8;
40569;PMS5003;26270;34.428;-119.710;2023-02-18T03:26:44;5;5;
40569;PMS5003;26270;34.428;-119.710;2023-02-18T03:29:16;6;6;
40569;PMS5003;26270;34.428;-119.710;2023-02-18T03:31:48;7;6;
40569;PMS5003;26270;34.428;-119.710;2023-02-18T03:34:22;10;9;
40569;PMS5003;26270;34.428;-119.710;2023-02-18T03:36:55;12;10;
40569;PMS5003;26270;34.428;-119.710;2023-02-18T03:39:26;9;8;
40569;PMS5003;26270;34.428;-119.710;2023-02-18T03:41:55;12;11;
40569;PMS5003;26270;34.428;-119.710;2023-02-18T03:44:24;11;10;
40569;PMS5003;26270;34.428;-119.710;2023-02-18T03:46:52;10;10;
40569;PMS5003;26270;34.428;-119.710;2023-02-18T03:49:21;11;10;
40569;PMS5003;26270;34.428;-119.710;2023-02-18T03:51:49;11;11;
40569;PMS5003;26270;34.428;-119.710;2023-02-18T03:54:17;13;11;
40569;PMS5003;26270;34.428;-119.710;2023-02-18T03:56:46;22;18;
40569;PMS5003;26270;34.428;-119.710;2023-02-18T03:59:14;13;13;
40569;PMS5003;26270;34.428;-119.710;2023-02-18T04:01:42;12;12;
40569;PMS5003;26270;34.428;-119.710;2023-02-18T04:04:09;12;12;
40569;PMS5003;26270;34.428;-119.710;2023-02-18T04:06:38;11;11;
40569;PMS5003;26270;34.428;-119.710;2023-02-18T04:09:07;9;9;
40569;PMS5003;26270;34.428;-119.710;2023-02-18T04:11:35;10;9;
40569;PMS5003;26270;34.428;-119.710;2023-02-18T04:14:04;8;8;
40569;PMS5003;26270;34.428;-119.710;2023-02-18T04:16:33;9;8;
40569;PMS5003;26270;34.428;-119.710;2023-02-18T04:19:01;10;10;
40569;PMS5003;26270;34.428;-119.710;2023-02-18T04:21:30;18;17;
40569;PMS5003;26270;34.428;-119.710;2023-02-18T04:23:58;15;13;
40569;PMS5003;26270;34.428;-119.710;2023-02-18T04:26:27;18;17;
40569;PMS5003;26270;34.428;-119.710;2023-02-18T04:28:55;14;12;
40569;PMS5003;26270;34.428;-119.710;2023-02-18T04:31:23;10;10;
40569;PMS5003;26270;34.428;-119.710;2023-02-18T04:33:50;12;11;
40569;PMS5003;26270;34.428;-119.710;2023-02-18T04:36:19;16;15;
40569;PMS5003;26270;34.428;-119.710;2023-02-18T04:38:46;15;15;
40569;PMS5003;26270;34.428;-119.710;2023-02-18T04:41:14;13;12;
40569;PMS5003;26270;34.428;-119.710;2023-02-18T04:43:43;14;12;
40569;PMS5003;26270;34.428;-119.710;2023-02-18T04:46:10;11;10;
40569;PMS5003;26270;34.428;-119.710;2023-02-18T04:48:38;12;12;
40569;PMS5003;26270;34.428;-119.710;2023-02-18T04:51:07;11;11;
40569;PMS5003;26270;34.428;-119.710;2023-02-18T04:53:36;16;14;
40569;PMS5003;26270;34.428;-119.710;2023-02-18T04:56:04;14;14;
40569;PMS5003;26270;34.428;-119.710;2023-02-18T04:58:33;17;16;
40569;PMS5003;26270;34.428;-119.710;2023-02-18T05:03:18;16;14;
40569;PMS5003;26270;34.428;-119.710;2023-02-18T05:05:46;14;13;
40569;PMS5003;26270;34.428;-119.710;2023-02-18T05:08:14;11;10;
40569;PMS5003;26270;34.428;-119.710;2023-02-18T05:10:42;11;11;
40569;PMS5003;26270;34.428;-119.710;2023-02-18T05:13:10;10;10;
40569;PMS5003;26270;34.428;-119.710;2023-02-18T05:15:37;10;10;
40569;PMS5003;26270;34.428;-119.710;2023-02-18T05:18:05;8;8;
40569;PMS5003;26270;34.428;-119.710;2023-02-18T05:20:33;7;7;
40569;PMS5003;26270;34.428;-119.710;2023-02-18T05:23:01;7;7;
40569;PMS5003;26270;34.428;-119.710;2023-02-18T05:25:29;9;9;
40569;PMS5003;26270;34.428;-119.710;2023-02-18T05:27:57;9;9;
40569;PMS5003;26270;34.428;-119.710;2023-02-18T05:30:25;11;10;
40569;PMS5003;26270;34.428;-119.710;2023-02-18T05:32:53;10;8;
40569;PMS5003;26270;34.428;-119.710;2023-02-18T05:35:21;12;10;
40569;PMS5003;26270;34.428;-119.710;2023-02-18T05:37:49;9;6;
40569;PMS5003;26270;34.428;-119.710;2023-02-18T05:40:17;9;9;
40569;PMS5003;26270;34.428;-119.710;2023-02-18T05:42:45;10;10;
40569;PMS5003;26270;34.428;-119.710;2023-02-18T05:45:13;12;11;
40569;PMS5003;26270;34.428;-119.710;2023-02-18T05:47:42;11;10;
40569;PMS5003;26270;34.428;-119.710;2023-02-18T05:50:10;13;10;
40569;PMS5003;26270;34.428;-119.710;2023-02-18T05:52:38;13;10;
40569;PMS5003;26270;34.428;-119.710;2023-02-18T05:55:06;10;10;
40569;PMS5003;26270;34.428;-119.710;2023-02-18T05:57:34;8;7;
40569;PMS5003;26270;34.428;-119.710;2023-02-18T06:00:02;10;9;
40569;PMS5003;26270;34.428;-119.710;2023-02-18T06:02:32;10;9;
40569;PMS5003;26270;34.428;-119.710;2023-02-18T06:04:59;9;9;
40569;PMS5003;26270;34.428;-119.710;2023-02-18T06:07:27;11;11;
40569;PMS5003;26270;34.428;-119.710;2023-02-18T06:09:55;10;10;
40569;PMS5003;26270;34.428;-119.710;2023-02-18T06:12:23;10;10;
40569;PMS5003;26270;34.428;-119.710;2023-02-18T06:14:51;9;8;
40569;PMS5003;26270;34.428;-119.710;2023-02-18T06:17:20;14;11;
40569;PMS5003;26270;34.428;-119.710;2023-02-18T06:19:48;8;8;
40569;PMS5003;26270;34.428;-119.710;2023-02-18T06:22:16;11;8;
40569;PMS5003;26270;34.428;-119.710;2023-02-18T06:24:43;8;8;
40569;PMS5003;26270;34.428;-119.710;2023-02-18T06:27:12;9;9;
40569;PMS5003;26270;34.428;-119.710;2023-02-18T06:29:40;7;7;
40569;PMS5003;26270;34.428;-119.710;2023-02-18T06:32:09;6;6;
40569;PMS5003;26270;34.428;-119.710;2023-02-18T06:34:36;7;7;
40569;PMS5003;26270;34.428;-119.710;2023-02-18T06:37:05;9;7;
40569;PMS5003;26270;34.428;-119.710;2023-02-18T06:39:33;7;6;
40569;PMS5003;26270;34.428;-119.710;2023-02-18T06:42:00;5;5;
40569;PMS5003;26270;34.428;-119.710;2023-02-18T06:44:28;4;4;
40569;PMS5003;26270;34.428;-119.710;2023-02-18T06:46:56;7;4;
40569;PMS5003;26270;34.428;-119.710;2023-02-18T06:49:24;5;5;
40569;PMS5003;26270;34.428;-119.710;2023-02-18T06:51:52;5;4;
40569;PMS5003;26270;34.428;-119.710;2023-02-18T06:54:20;4;4;
40569;PMS5003;26270;34.428;-119.710;2023-02-18T06:56:48;5;5;
40569;PMS5003;26270;34.428;-119.710;2023-02-18T06:59:16;5;5;
40569;PMS5003;26270;34.428;-119.710;2023-02-18T07:01:44;6;4;
40569;PMS5003;26270;34.428;-119.710;2023-02-18T07:04:11;4;3;
40569;PMS5003;26270;34.428;-119.710;2023-02-18T07:06:39;4;4;
40569;PMS5003;26270;34.428;-119.710;2023-02-18T07:09:07;6;5;
40569;PMS5003;26270;34.428;-119.710;2023-02-18T07:11:35;7;6;
40569;PMS5003;26270;34.428;-119.710;2023-02-18T07:14:03;14;9;
40569;PMS5003;26270;34.428;-119.710;2023-02-18T07:16:31;9;8;
40569;PMS5003;26270;34.428;-119.710;2023-02-18T07:18:58;8;7;
40569;PMS5003;26270;34.428;-119.710;2023-02-18T07:21:26;8;7;
40569;PMS5003;26270;34.428;-119.710;2023-02-18T07:23:54;8;7;
40569;PMS5003;26270;34.428;-119.710;2023-02-18T07:26:22;6;6;
40569;PMS5003;26270;34.428;-119.710;2023-02-18T07:28:49;11;9;
40569;PMS5003;26270;34.428;-119.710;2023-02-18T07:31:17;8;6;
40569;PMS5003;26270;34.428;-119.710;2023-02-18T07:33:46;5;5;
40569;PMS5003;26270;34.428;-119.710;2023-02-18T07:36:14;4;4;
40569;PMS5003;26270;34.428;-119.710;2023-02-18T07:38:42;5;5;
40569;PMS5003;26270;34.428;-119.710;2023-02-18T07:41:12;5;4;
40569;PMS5003;26270;34.428;-119.710;2023-02-18T07:43:44;6;5;
40569;PMS5003;26270;34.428;-119.710;2023-02-18T07:46:12;5;5;
40569;PMS5003;26270;34.428;-119.710;2023-02-18T07:48:40;5;4;
40569;PMS5003;26270;34.428;-119.710;2023-02-18T07:51:09;4;4;
40569;PMS5003;26270;34.428;-119.710;2023-02-18T07:53:38;5;5;
40569;PMS5003;26270;34.428;-119.710;2023-02-18T07:56:07;5;4;
40569;PMS5003;26270;34.428;-119.710;2023-02-18T07:58:36;3;3;
40569;PMS5003;26270;34.428;-119.710;2023-02-18T08:01:05;4;4;
40569;PMS5003;26270;34.428;-119.710;2023-02-18T08:03:33;6;6;
40569;PMS5003;26270;34.428;-119.710;2023-02-18T08:06:03;4;4;
40569;PMS5003;26270;34.428;-119.710;2023-02-18T08:08:31;5;5;
40569;PMS5003;26270;34.428;-119.710;2023-02-18T08:11:01;5;4;
40569;PMS5003;26270;34.428;-119.710;2023-02-18T08:13:29;4;4;
40569;PMS5003;26270;34.428;-119.710;2023-02-18T08:15:57;4;3;
40569;PMS5003;26270;34.428;-119.710;2023-02-18T08:18:25;4;4;
40569;PMS5003;26270;34.428;-119.710;2023-02-18T08:20:53;3;2;
40569;PMS5003;26270;34.428;-119.710;2023-02-18T08:23:21;3;3;
40569;PMS5003;26270;34.428;-119.710;2023-02-18T08:25:50;3;2;
40569;PMS5003;26270;34.428;-119.710;2023-02-18T08:28:19;2;2;
40569;PMS5003;26270;34.428;-119.710;2023-02-18T08:30:49;2;2;
40569;PMS5003;26270;34.428;-119.710;2023-02-18T08:33:19;3;2;
40569;PMS5003;26270;34.428;-119.710;2023-02-18T08:35:49;2;2;
40569;PMS5003;26270;34.428;-119.710;2023-02-18T08:38:19;1;1;
40569;PMS5003;26270;34.428;-119.710;2023-02-18T08:40:48;1;1;
40569;PMS5003;26270;34.428;-119.710;2023-02-18T08:43:17;2;1;
40569;PMS5003;26270;34.428;-119.710;2023-02-18T08:45:45;1;1;
40569;PMS5003;26270;34.428;-119.710;2023-02-18T08:48:13;2;2;
40569;PMS5003;26270;34.428;-119.710;2023-02-18T08:50:42;2;1;
40569;PMS5003;26270;34.428;-119.710;2023-02-18T08:53:10;1;1;
40569;PMS5003;26270;34.428;-119.710;2023-02-18T08:55:38;2;2;
40569;PMS5003;26270;34.428;-119.710;2023-02-18T08:58:07;1;1;
40569;PMS5003;26270;34.428;-119.710;2023-02-18T09:00:35;1;1;
40569;PMS5003;26270;34.428;-119.710;2023-02-18T09:03:03;2;1;
40569;PMS5003;26270;34.428;-119.710;2023-02-18T09:05:31;2;2;
40569;PMS5003;26270;34.428;-119.710;2023-02-18T09:08:00;1;1;
40569;PMS5003;26270;34.428;-119.710;2023-02-18T09:10:27;1;1;
40569;PMS5003;26270;34.428;-119.710;2023-02-18T09:12:55;1;1;
40569;PMS5003;26270;34.428;-119.710;2023-02-18T09:15:23;1;1;
40569;PMS5003;26270;34.428;-119.710;2023-02-18T09:17:50;1;1;
40569;PMS5003;26270;34.428;-119.710;2023-02-18T09:20:18;2;2;
40569;PMS5003;26270;34.428;-119.710;2023-02-18T09:22:47;1;1;
40569;PMS5003;26270;34.428;-119.710;2023-02-18T09:25:14;1;1;
40569;PMS5003;26270;34.428;-119.710;2023-02-18T09:27:43;2;2;
40569;PMS5003;26270;34.428;-119.710;2023-02-18T09:30:11;5;3;
40569;PMS5003;26270;34.428;-119.710;2023-02-18T09:32:39;2;2;
40569;PMS5003;26270;34.428;-119.710;2023-02-18T09:35:07;4;3;
40569;PMS5003;26270;34.428;-119.710;2023-02-18T09:37:35;3;2;
40569;PMS5003;26270;34.428;-119.710;2023-02-18T09:40:03;3;3;
40569;PMS5003;26270;34.428;-119.710;2023-02-18T09:42:32;2;2;
40569;PMS5003;26270;34.428;-119.710;2023-02-18T09:45:02;4;2;
40569;PMS5003;26270;34.428;-119.710;2023-02-18T09:47:34;1;1;
40569;PMS5003;26270;34.428;-119.710;2023-02-18T09:50:05;1;1;
40569;PMS5003;26270;34.428;-119.710;2023-02-18T09:52:40;0;0;
40569;PMS5003;26270;34.428;-119.710;2023-02-18T09:55:26;1;1;
40569;PMS5003;26270;34.428;-119.710;2023-02-18T09:57:56;2;1;
40569;PMS5003;26270;34.428;-119.710;2023-02-18T10:00:28;2;1;
40569;PMS5003;26270;34.428;-119.710;2023-02-18T10:03:00;2;1;
40569;PMS5003;26270;34.428;-119.710;2023-02-18T10:05:33;3;2;
40569;PMS5003;26270;34.428;-119.710;2023-02-18T10:08:04;1;1;
40569;PMS5003;26270;34.428;-119.710;2023-02-18T10:10:41;1;1;
40569;PMS5003;26270;34.428;-119.710;2023-02-18T10:13:12;2;1;
40569;PMS5003;26270;34.428;-119.710;2023-02-18T10:15:42;0;0;
40569;PMS5003;26270;34.428;-119.710;2023-02-18T10:18:15;0;0;
40569;PMS5003;26270;34.428;-119.710;2023-02-18T10:20:50;1;1;
